sensor_id;sensor_type;location;lat;lon;timestamp;P1;durP1;ratioP1;P2;durP2;ratioP2
18082;SDS011;9168;51.194;6.840;2022-09-23T00:00:12;11.00;;;3.17;;
18082;SDS011;9168;51.194;6.840;2022-09-23T00:02:40;8.80;;;3.20;;
18082;SDS011;9168;51.194;6.840;2022-09-23T00:05:07;7.88;;;3.50;;
18082;SDS011;9168;51.194;6.840;2022-09-23T00:07:35;5.88;;;2.58;;
18082;SDS011;9168;51.194;6.840;2022-09-23T00:10:02;7.78;;;3.38;;
18082;SDS011;9168;51.194;6.840;2022-09-23T00:12:30;7.32;;;3.25;;
18082;SDS011;9168;51.194;6.840;2022-09-23T00:14:57;6.45;;;2.90;;
18082;SDS011;9168;51.194;6.840;2022-09-23T00:17:25;8.43;;;2.70;;
18082;SDS011;9168;51.194;6.840;2022-09-23T00:19:52;9.35;;;3.22;;
18082;SDS011;9168;51.194;6.840;2022-09-23T00:22:19;9.70;;;2.90;;
18082;SDS011;9168;51.194;6.840;2022-09-23T00:24:46;5.90;;;2.72;;
18082;SDS011;9168;51.194;6.840;2022-09-23T00:27:13;10.30;;;2.72;;
18082;SDS011;9168;51.194;6.840;2022-09-23T00:29:40;12.77;;;2.90;;
18082;SDS011;9168;51.194;6.840;2022-09-23T00:32:07;11.27;;;2.88;;
18082;SDS011;9168;51.194;6.840;2022-09-23T00:34:35;13.57;;;2.80;;
18082;SDS011;9168;51.194;6.840;2022-09-23T00:37:02;7.38;;;2.70;;
18082;SDS011;9168;51.194;6.840;2022-09-23T00:39:29;6.65;;;3.00;;
18082;SDS011;9168;51.194;6.840;2022-09-23T00:41:56;9.77;;;3.05;;
18082;SDS011;9168;51.194;6.840;2022-09-23T00:44:42;9.07;;;2.60;;
18082;SDS011;9168;51.194;6.840;2022-09-23T00:47:12;13.95;;;3.00;;
18082;SDS011;9168;51.194;6.840;2022-09-23T00:49:44;8.57;;;2.75;;
18082;SDS011;9168;51.194;6.840;2022-09-23T00:52:15;11.93;;;2.97;;
18082;SDS011;9168;51.194;6.840;2022-09-23T00:54:44;9.80;;;3.08;;
18082;SDS011;9168;51.194;6.840;2022-09-23T00:57:13;8.30;;;3.13;;
18082;SDS011;9168;51.194;6.840;2022-09-23T00:59:44;9.85;;;2.70;;
18082;SDS011;9168;51.194;6.840;2022-09-23T01:02:11;10.85;;;3.17;;
18082;SDS011;9168;51.194;6.840;2022-09-23T01:04:40;8.70;;;2.80;;
18082;SDS011;9168;51.194;6.840;2022-09-23T01:07:09;9.07;;;3.20;;
18082;SDS011;9168;51.194;6.840;2022-09-23T01:09:35;6.93;;;2.83;;
18082;SDS011;9168;51.194;6.840;2022-09-23T01:12:04;11.00;;;3.13;;
18082;SDS011;9168;51.194;6.840;2022-09-23T01:14:44;7.22;;;2.80;;
18082;SDS011;9168;51.194;6.840;2022-09-23T01:17:18;5.60;;;2.63;;
18082;SDS011;9168;51.194;6.840;2022-09-23T01:19:58;6.93;;;2.83;;
18082;SDS011;9168;51.194;6.840;2022-09-23T01:22:37;7.80;;;2.58;;
18082;SDS011;9168;51.194;6.840;2022-09-23T01:25:16;6.43;;;2.90;;
18082;SDS011;9168;51.194;6.840;2022-09-23T01:28:03;8.00;;;2.90;;
18082;SDS011;9168;51.194;6.840;2022-09-23T01:30:44;9.00;;;3.35;;
18082;SDS011;9168;51.194;6.840;2022-09-23T01:33:17;9.98;;;3.10;;
18082;SDS011;9168;51.194;6.840;2022-09-23T01:35:52;7.22;;;3.05;;
18082;SDS011;9168;51.194;6.840;2022-09-23T01:38:30;6.30;;;2.80;;
18082;SDS011;9168;51.194;6.840;2022-09-23T01:41:05;12.13;;;3.13;;
18082;SDS011;9168;51.194;6.840;2022-09-23T01:43:46;7.30;;;3.10;;
18082;SDS011;9168;51.194;6.840;2022-09-23T01:46:19;9.60;;;2.87;;
18082;SDS011;9168;51.194;6.840;2022-09-23T01:48:52;6.32;;;2.95;;
18082;SDS011;9168;51.194;6.840;2022-09-23T01:51:25;6.07;;;3.03;;
18082;SDS011;9168;51.194;6.840;2022-09-23T01:53:59;9.57;;;3.15;;
18082;SDS011;9168;51.194;6.840;2022-09-23T01:56:33;11.80;;;3.15;;
18082;SDS011;9168;51.194;6.840;2022-09-23T01:59:04;7.57;;;3.20;;
18082;SDS011;9168;51.194;6.840;2022-09-23T02:01:40;5.05;;;2.58;;
18082;SDS011;9168;51.194;6.840;2022-09-23T02:04:12;13.82;;;3.10;;
18082;SDS011;9168;51.194;6.840;2022-09-23T02:06:43;7.90;;;3.35;;
18082;SDS011;9168;51.194;6.840;2022-09-23T02:09:16;7.18;;;2.70;;
18082;SDS011;9168;51.194;6.840;2022-09-23T02:11:50;8.23;;;3.33;;
18082;SDS011;9168;51.194;6.840;2022-09-23T02:14:22;7.70;;;3.30;;
18082;SDS011;9168;51.194;6.840;2022-09-23T02:16:53;8.68;;;3.10;;
18082;SDS011;9168;51.194;6.840;2022-09-23T02:19:25;9.18;;;3.10;;
18082;SDS011;9168;51.194;6.840;2022-09-23T02:21:56;8.18;;;3.60;;
18082;SDS011;9168;51.194;6.840;2022-09-23T02:24:29;10.50;;;3.22;;
18082;SDS011;9168;51.194;6.840;2022-09-23T02:27:02;13.70;;;3.63;;
18082;SDS011;9168;51.194;6.840;2022-09-23T02:29:38;7.25;;;3.17;;
18082;SDS011;9168;51.194;6.840;2022-09-23T02:32:15;11.13;;;3.00;;
18082;SDS011;9168;51.194;6.840;2022-09-23T02:34:48;8.93;;;3.25;;
18082;SDS011;9168;51.194;6.840;2022-09-23T02:37:23;7.32;;;3.08;;
18082;SDS011;9168;51.194;6.840;2022-09-23T02:39:57;10.90;;;3.22;;
18082;SDS011;9168;51.194;6.840;2022-09-23T02:42:31;7.32;;;3.10;;
18082;SDS011;9168;51.194;6.840;2022-09-23T02:45:05;10.18;;;3.13;;
18082;SDS011;9168;51.194;6.840;2022-09-23T02:47:34;5.40;;;2.72;;
18082;SDS011;9168;51.194;6.840;2022-09-23T02:50:05;8.13;;;2.95;;
18082;SDS011;9168;51.194;6.840;2022-09-23T02:52:33;10.35;;;3.08;;
18082;SDS011;9168;51.194;6.840;2022-09-23T02:55:02;5.05;;;2.50;;
18082;SDS011;9168;51.194;6.840;2022-09-23T02:57:29;11.10;;;3.17;;
18082;SDS011;9168;51.194;6.840;2022-09-23T02:59:56;5.72;;;3.00;;
18082;SDS011;9168;51.194;6.840;2022-09-23T03:02:26;7.57;;;2.58;;
18082;SDS011;9168;51.194;6.840;2022-09-23T03:05:16;5.32;;;2.55;;
18082;SDS011;9168;51.194;6.840;2022-09-23T03:07:48;8.67;;;3.17;;
18082;SDS011;9168;51.194;6.840;2022-09-23T03:10:24;5.93;;;2.57;;
18082;SDS011;9168;51.194;6.840;2022-09-23T03:12:57;6.68;;;2.53;;
18082;SDS011;9168;51.194;6.840;2022-09-23T03:15:33;7.28;;;2.83;;
18082;SDS011;9168;51.194;6.840;2022-09-23T03:18:06;6.85;;;3.13;;
18082;SDS011;9168;51.194;6.840;2022-09-23T03:20:39;5.13;;;2.33;;
18082;SDS011;9168;51.194;6.840;2022-09-23T03:23:11;11.05;;;3.10;;
18082;SDS011;9168;51.194;6.840;2022-09-23T03:25:42;5.38;;;2.78;;
18082;SDS011;9168;51.194;6.840;2022-09-23T03:28:12;9.60;;;3.28;;
18082;SDS011;9168;51.194;6.840;2022-09-23T03:30:41;8.55;;;3.00;;
18082;SDS011;9168;51.194;6.840;2022-09-23T03:33:11;7.40;;;2.67;;
18082;SDS011;9168;51.194;6.840;2022-09-23T03:35:41;8.87;;;2.80;;
18082;SDS011;9168;51.194;6.840;2022-09-23T03:38:34;5.43;;;2.67;;
18082;SDS011;9168;51.194;6.840;2022-09-23T03:41:04;6.82;;;2.75;;
18082;SDS011;9168;51.194;6.840;2022-09-23T03:43:36;6.32;;;3.28;;
18082;SDS011;9168;51.194;6.840;2022-09-23T03:46:03;7.18;;;2.92;;
18082;SDS011;9168;51.194;6.840;2022-09-23T03:48:33;6.37;;;3.03;;
18082;SDS011;9168;51.194;6.840;2022-09-23T03:51:00;7.32;;;2.85;;
18082;SDS011;9168;51.194;6.840;2022-09-23T03:53:42;6.40;;;2.90;;
18082;SDS011;9168;51.194;6.840;2022-09-23T03:56:09;6.85;;;3.38;;
18082;SDS011;9168;51.194;6.840;2022-09-23T03:58:36;6.50;;;2.60;;
18082;SDS011;9168;51.194;6.840;2022-09-23T04:01:03;13.50;;;3.95;;
18082;SDS011;9168;51.194;6.840;2022-09-23T04:03:30;12.30;;;3.92;;
18082;SDS011;9168;51.194;6.840;2022-09-23T04:05:58;8.77;;;3.30;;
18082;SDS011;9168;51.194;6.840;2022-09-23T04:08:25;8.73;;;3.63;;
18082;SDS011;9168;51.194;6.840;2022-09-23T04:10:52;8.02;;;3.20;;
18082;SDS011;9168;51.194;6.840;2022-09-23T04:13:25;7.93;;;3.55;;
18082;SDS011;9168;51.194;6.840;2022-09-23T04:15:53;6.47;;;3.10;;
18082;SDS011;9168;51.194;6.840;2022-09-23T04:18:20;11.77;;;3.42;;
18082;SDS011;9168;51.194;6.840;2022-09-23T04:20:47;11.60;;;3.30;;
18082;SDS011;9168;51.194;6.840;2022-09-23T04:23:15;6.65;;;3.28;;
18082;SDS011;9168;51.194;6.840;2022-09-23T04:25:45;8.00;;;3.30;;
18082;SDS011;9168;51.194;6.840;2022-09-23T04:28:12;8.05;;;3.67;;
18082;SDS011;9168;51.194;6.840;2022-09-23T04:30:39;9.32;;;3.13;;
18082;SDS011;9168;51.194;6.840;2022-09-23T04:33:08;7.82;;;3.40;;
18082;SDS011;9168;51.194;6.840;2022-09-23T04:35:36;7.13;;;3.08;;
18082;SDS011;9168;51.194;6.840;2022-09-23T04:38:03;12.67;;;4.27;;
18082;SDS011;9168;51.194;6.840;2022-09-23T04:40:32;14.38;;;3.75;;
18082;SDS011;9168;51.194;6.840;2022-09-23T04:42:59;11.03;;;3.47;;
18082;SDS011;9168;51.194;6.840;2022-09-23T04:45:26;8.67;;;3.43;;
18082;SDS011;9168;51.194;6.840;2022-09-23T04:47:53;8.80;;;3.47;;
18082;SDS011;9168;51.194;6.840;2022-09-23T04:50:22;8.68;;;3.65;;
18082;SDS011;9168;51.194;6.840;2022-09-23T04:52:49;11.18;;;3.70;;
18082;SDS011;9168;51.194;6.840;2022-09-23T04:55:16;7.35;;;3.42;;
18082;SDS011;9168;51.194;6.840;2022-09-23T04:57:44;14.70;;;3.50;;
18082;SDS011;9168;51.194;6.840;2022-09-23T05:00:12;7.18;;;3.10;;
18082;SDS011;9168;51.194;6.840;2022-09-23T05:02:42;10.38;;;2.92;;
18082;SDS011;9168;51.194;6.840;2022-09-23T05:05:10;7.47;;;3.20;;
18082;SDS011;9168;51.194;6.840;2022-09-23T05:07:37;9.07;;;3.20;;
18082;SDS011;9168;51.194;6.840;2022-09-23T05:10:04;6.85;;;3.10;;
18082;SDS011;9168;51.194;6.840;2022-09-23T05:12:32;9.63;;;3.40;;
18082;SDS011;9168;51.194;6.840;2022-09-23T05:15:00;9.90;;;3.15;;
18082;SDS011;9168;51.194;6.840;2022-09-23T05:17:27;7.75;;;3.22;;
18082;SDS011;9168;51.194;6.840;2022-09-23T05:19:55;6.82;;;2.80;;
18082;SDS011;9168;51.194;6.840;2022-09-23T05:22:23;9.98;;;3.08;;
18082;SDS011;9168;51.194;6.840;2022-09-23T05:24:50;28.90;;;3.70;;
18082;SDS011;9168;51.194;6.840;2022-09-23T05:27:17;21.50;;;5.13;;
18082;SDS011;9168;51.194;6.840;2022-09-23T05:29:44;11.23;;;3.63;;
18082;SDS011;9168;51.194;6.840;2022-09-23T05:32:13;10.00;;;3.50;;
18082;SDS011;9168;51.194;6.840;2022-09-23T05:34:40;8.23;;;3.17;;
18082;SDS011;9168;51.194;6.840;2022-09-23T05:37:07;9.30;;;3.77;;
18082;SDS011;9168;51.194;6.840;2022-09-23T05:39:34;14.13;;;4.03;;
18082;SDS011;9168;51.194;6.840;2022-09-23T05:42:02;8.48;;;3.78;;
18082;SDS011;9168;51.194;6.840;2022-09-23T05:44:29;14.13;;;3.50;;
18082;SDS011;9168;51.194;6.840;2022-09-23T05:46:56;10.88;;;3.83;;
18082;SDS011;9168;51.194;6.840;2022-09-23T05:49:24;10.67;;;3.30;;
18082;SDS011;9168;51.194;6.840;2022-09-23T05:51:51;12.00;;;3.75;;
18082;SDS011;9168;51.194;6.840;2022-09-23T05:54:18;11.60;;;3.87;;
18082;SDS011;9168;51.194;6.840;2022-09-23T05:56:45;13.67;;;3.97;;
18082;SDS011;9168;51.194;6.840;2022-09-23T05:59:12;11.40;;;3.30;;
18082;SDS011;9168;51.194;6.840;2022-09-23T06:01:38;13.50;;;3.37;;
18082;SDS011;9168;51.194;6.840;2022-09-23T06:04:06;10.45;;;3.65;;
18082;SDS011;9168;51.194;6.840;2022-09-23T06:06:38;11.13;;;3.40;;
18082;SDS011;9168;51.194;6.840;2022-09-23T06:09:07;12.17;;;3.80;;
18082;SDS011;9168;51.194;6.840;2022-09-23T06:11:36;9.80;;;3.88;;
18082;SDS011;9168;51.194;6.840;2022-09-23T06:14:03;16.20;;;4.20;;
18082;SDS011;9168;51.194;6.840;2022-09-23T06:16:30;11.47;;;3.87;;
18082;SDS011;9168;51.194;6.840;2022-09-23T06:18:58;11.87;;;3.73;;
18082;SDS011;9168;51.194;6.840;2022-09-23T06:21:29;15.43;;;3.90;;
18082;SDS011;9168;51.194;6.840;2022-09-23T06:23:58;17.25;;;4.10;;
18082;SDS011;9168;51.194;6.840;2022-09-23T06:26:25;12.40;;;3.80;;
18082;SDS011;9168;51.194;6.840;2022-09-23T06:28:58;6.65;;;3.63;;
18082;SDS011;9168;51.194;6.840;2022-09-23T06:31:26;16.48;;;4.20;;
18082;SDS011;9168;51.194;6.840;2022-09-23T06:33:53;10.65;;;4.30;;
18082;SDS011;9168;51.194;6.840;2022-09-23T06:36:20;12.40;;;3.92;;
18082;SDS011;9168;51.194;6.840;2022-09-23T06:38:47;18.88;;;4.15;;
18082;SDS011;9168;51.194;6.840;2022-09-23T06:41:16;9.68;;;4.22;;
18082;SDS011;9168;51.194;6.840;2022-09-23T06:43:44;17.50;;;4.00;;
18082;SDS011;9168;51.194;6.840;2022-09-23T06:46:12;16.25;;;4.15;;
18082;SDS011;9168;51.194;6.840;2022-09-23T06:48:41;11.50;;;4.38;;
18082;SDS011;9168;51.194;6.840;2022-09-23T06:51:09;14.02;;;4.45;;
18082;SDS011;9168;51.194;6.840;2022-09-23T06:53:42;13.55;;;4.00;;
18082;SDS011;9168;51.194;6.840;2022-09-23T06:56:13;17.50;;;4.50;;
18082;SDS011;9168;51.194;6.840;2022-09-23T06:58:43;13.18;;;4.05;;
18082;SDS011;9168;51.194;6.840;2022-09-23T07:01:10;17.80;;;3.90;;
18082;SDS011;9168;51.194;6.840;2022-09-23T07:03:40;12.15;;;4.00;;
18082;SDS011;9168;51.194;6.840;2022-09-23T07:06:07;16.42;;;4.10;;
18082;SDS011;9168;51.194;6.840;2022-09-23T07:08:34;14.00;;;3.80;;
18082;SDS011;9168;51.194;6.840;2022-09-23T07:11:02;13.10;;;3.92;;
18082;SDS011;9168;51.194;6.840;2022-09-23T07:13:31;7.53;;;3.10;;
18082;SDS011;9168;51.194;6.840;2022-09-23T07:16:00;10.48;;;3.30;;
18082;SDS011;9168;51.194;6.840;2022-09-23T07:18:28;11.27;;;3.22;;
18082;SDS011;9168;51.194;6.840;2022-09-23T07:21:02;11.43;;;2.63;;
18082;SDS011;9168;51.194;6.840;2022-09-23T07:23:31;13.00;;;3.13;;
18082;SDS011;9168;51.194;6.840;2022-09-23T07:25:58;12.55;;;3.15;;
18082;SDS011;9168;51.194;6.840;2022-09-23T07:28:25;9.00;;;2.50;;
18082;SDS011;9168;51.194;6.840;2022-09-23T07:30:53;7.30;;;2.40;;
18082;SDS011;9168;51.194;6.840;2022-09-23T07:33:22;7.82;;;2.50;;
18082;SDS011;9168;51.194;6.840;2022-09-23T07:35:49;10.00;;;2.95;;
18082;SDS011;9168;51.194;6.840;2022-09-23T07:38:15;10.48;;;2.30;;
18082;SDS011;9168;51.194;6.840;2022-09-23T07:40:42;9.63;;;3.13;;
18082;SDS011;9168;51.194;6.840;2022-09-23T07:43:09;7.03;;;2.65;;
18082;SDS011;9168;51.194;6.840;2022-09-23T07:45:38;7.07;;;2.70;;
18082;SDS011;9168;51.194;6.840;2022-09-23T07:48:07;8.32;;;3.08;;
18082;SDS011;9168;51.194;6.840;2022-09-23T07:50:39;11.23;;;2.83;;
18082;SDS011;9168;51.194;6.840;2022-09-23T07:53:06;5.88;;;2.40;;
18082;SDS011;9168;51.194;6.840;2022-09-23T07:55:33;20.63;;;2.60;;
18082;SDS011;9168;51.194;6.840;2022-09-23T07:58:00;6.40;;;2.95;;
18082;SDS011;9168;51.194;6.840;2022-09-23T08:00:27;12.00;;;3.00;;
18082;SDS011;9168;51.194;6.840;2022-09-23T08:02:54;9.25;;;2.88;;
18082;SDS011;9168;51.194;6.840;2022-09-23T08:05:21;10.95;;;3.38;;
18082;SDS011;9168;51.194;6.840;2022-09-23T08:07:49;8.18;;;3.80;;
18082;SDS011;9168;51.194;6.840;2022-09-23T08:10:16;11.50;;;3.80;;
18082;SDS011;9168;51.194;6.840;2022-09-23T08:12:45;11.68;;;3.60;;
18082;SDS011;9168;51.194;6.840;2022-09-23T08:15:13;12.80;;;4.15;;
18082;SDS011;9168;51.194;6.840;2022-09-23T08:17:40;10.63;;;3.25;;
18082;SDS011;9168;51.194;6.840;2022-09-23T08:20:07;11.77;;;3.80;;
18082;SDS011;9168;51.194;6.840;2022-09-23T08:22:57;10.30;;;3.28;;
18082;SDS011;9168;51.194;6.840;2022-09-23T08:25:24;10.10;;;3.25;;
18082;SDS011;9168;51.194;6.840;2022-09-23T08:27:51;12.73;;;3.58;;
18082;SDS011;9168;51.194;6.840;2022-09-23T08:30:18;9.75;;;3.60;;
18082;SDS011;9168;51.194;6.840;2022-09-23T08:32:48;11.57;;;3.50;;
18082;SDS011;9168;51.194;6.840;2022-09-23T08:35:15;13.23;;;3.90;;
18082;SDS011;9168;51.194;6.840;2022-09-23T08:37:44;10.65;;;3.50;;
18082;SDS011;9168;51.194;6.840;2022-09-23T08:40:13;13.73;;;3.63;;
18082;SDS011;9168;51.194;6.840;2022-09-23T08:42:40;15.35;;;3.88;;
18082;SDS011;9168;51.194;6.840;2022-09-23T08:45:12;10.23;;;3.55;;
18082;SDS011;9168;51.194;6.840;2022-09-23T08:47:43;22.20;;;3.95;;
18082;SDS011;9168;51.194;6.840;2022-09-23T08:50:16;13.52;;;3.00;;
18082;SDS011;9168;51.194;6.840;2022-09-23T08:52:47;10.23;;;2.90;;
18082;SDS011;9168;51.194;6.840;2022-09-23T08:55:20;8.98;;;3.40;;
18082;SDS011;9168;51.194;6.840;2022-09-23T08:57:59;9.68;;;3.45;;
18082;SDS011;9168;51.194;6.840;2022-09-23T09:00:33;8.30;;;3.38;;
18082;SDS011;9168;51.194;6.840;2022-09-23T09:03:07;8.25;;;2.80;;
18082;SDS011;9168;51.194;6.840;2022-09-23T09:05:44;9.63;;;2.83;;
18082;SDS011;9168;51.194;6.840;2022-09-23T09:08:11;11.18;;;3.72;;
18082;SDS011;9168;51.194;6.840;2022-09-23T09:10:50;13.77;;;3.42;;
18082;SDS011;9168;51.194;6.840;2022-09-23T09:13:21;11.32;;;3.08;;
18082;SDS011;9168;51.194;6.840;2022-09-23T09:15:57;10.07;;;3.30;;
18082;SDS011;9168;51.194;6.840;2022-09-23T09:18:36;13.32;;;3.20;;
18082;SDS011;9168;51.194;6.840;2022-09-23T09:21:13;5.35;;;2.40;;
18082;SDS011;9168;51.194;6.840;2022-09-23T09:23:42;9.48;;;3.30;;
18082;SDS011;9168;51.194;6.840;2022-09-23T09:26:20;11.73;;;2.80;;
18082;SDS011;9168;51.194;6.840;2022-09-23T09:28:48;10.98;;;3.40;;
18082;SDS011;9168;51.194;6.840;2022-09-23T09:31:23;9.65;;;2.95;;
18082;SDS011;9168;51.194;6.840;2022-09-23T09:33:57;6.65;;;2.90;;
18082;SDS011;9168;51.194;6.840;2022-09-23T09:36:35;7.97;;;2.83;;
18082;SDS011;9168;51.194;6.840;2022-09-23T09:39:07;11.38;;;2.78;;
18082;SDS011;9168;51.194;6.840;2022-09-23T09:41:37;8.70;;;3.10;;
18082;SDS011;9168;51.194;6.840;2022-09-23T09:44:10;11.05;;;2.97;;
18082;SDS011;9168;51.194;6.840;2022-09-23T09:46:49;8.85;;;2.63;;
18082;SDS011;9168;51.194;6.840;2022-09-23T09:49:25;8.98;;;2.90;;
18082;SDS011;9168;51.194;6.840;2022-09-23T09:52:10;8.93;;;3.17;;
18082;SDS011;9168;51.194;6.840;2022-09-23T09:54:40;9.25;;;3.50;;
18082;SDS011;9168;51.194;6.840;2022-09-23T09:57:11;7.10;;;2.90;;
18082;SDS011;9168;51.194;6.840;2022-09-23T09:59:55;8.57;;;2.95;;
18082;SDS011;9168;51.194;6.840;2022-09-23T10:02:27;11.15;;;2.72;;
18082;SDS011;9168;51.194;6.840;2022-09-23T10:04:57;15.77;;;2.97;;
18082;SDS011;9168;51.194;6.840;2022-09-23T10:07:26;11.75;;;2.70;;
18082;SDS011;9168;51.194;6.840;2022-09-23T10:09:56;7.95;;;2.83;;
18082;SDS011;9168;51.194;6.840;2022-09-23T10:12:26;11.48;;;2.97;;
18082;SDS011;9168;51.194;6.840;2022-09-23T10:15:11;6.20;;;2.40;;
18082;SDS011;9168;51.194;6.840;2022-09-23T10:17:52;7.65;;;2.60;;
18082;SDS011;9168;51.194;6.840;2022-09-23T10:20:19;5.10;;;2.38;;
18082;SDS011;9168;51.194;6.840;2022-09-23T10:22:46;10.38;;;2.53;;
18082;SDS011;9168;51.194;6.840;2022-09-23T10:25:14;8.07;;;2.55;;
18082;SDS011;9168;51.194;6.840;2022-09-23T10:27:46;5.18;;;2.13;;
18082;SDS011;9168;51.194;6.840;2022-09-23T10:30:18;8.10;;;2.60;;
18082;SDS011;9168;51.194;6.840;2022-09-23T10:32:47;5.70;;;2.25;;
18082;SDS011;9168;51.194;6.840;2022-09-23T10:35:16;9.55;;;2.88;;
18082;SDS011;9168;51.194;6.840;2022-09-23T10:37:46;8.52;;;2.85;;
18082;SDS011;9168;51.194;6.840;2022-09-23T10:40:17;9.98;;;2.50;;
18082;SDS011;9168;51.194;6.840;2022-09-23T10:43:10;8.95;;;2.75;;
18082;SDS011;9168;51.194;6.840;2022-09-23T10:46:06;7.25;;;2.50;;
18082;SDS011;9168;51.194;6.840;2022-09-23T10:49:00;10.93;;;2.40;;
18082;SDS011;9168;51.194;6.840;2022-09-23T10:51:48;6.60;;;2.67;;
18082;SDS011;9168;51.194;6.840;2022-09-23T10:54:31;8.45;;;2.85;;
18082;SDS011;9168;51.194;6.840;2022-09-23T10:57:09;6.35;;;2.58;;
18082;SDS011;9168;51.194;6.840;2022-09-23T11:00:03;7.10;;;2.83;;
18082;SDS011;9168;51.194;6.840;2022-09-23T11:02:42;9.13;;;3.13;;
18082;SDS011;9168;51.194;6.840;2022-09-23T11:05:37;5.72;;;3.08;;
18082;SDS011;9168;51.194;6.840;2022-09-23T11:08:14;6.03;;;2.75;;
18082;SDS011;9168;51.194;6.840;2022-09-23T11:10:55;8.80;;;3.10;;
18082;SDS011;9168;51.194;6.840;2022-09-23T11:13:45;9.82;;;2.85;;
18082;SDS011;9168;51.194;6.840;2022-09-23T11:16:26;8.45;;;3.78;;
18082;SDS011;9168;51.194;6.840;2022-09-23T11:19:17;5.97;;;2.95;;
18082;SDS011;9168;51.194;6.840;2022-09-23T11:21:59;7.90;;;2.92;;
18082;SDS011;9168;51.194;6.840;2022-09-23T11:24:41;8.40;;;3.00;;
18082;SDS011;9168;51.194;6.840;2022-09-23T11:27:25;9.10;;;3.22;;
18082;SDS011;9168;51.194;6.840;2022-09-23T11:30:08;8.52;;;3.28;;
18082;SDS011;9168;51.194;6.840;2022-09-23T11:35:29;11.90;;;3.80;;
18082;SDS011;9168;51.194;6.840;2022-09-23T11:38:02;9.57;;;3.40;;
18082;SDS011;9168;51.194;6.840;2022-09-23T11:40:33;4.95;;;2.88;;
18082;SDS011;9168;51.194;6.840;2022-09-23T11:43:02;9.07;;;3.17;;
18082;SDS011;9168;51.194;6.840;2022-09-23T11:45:32;8.43;;;3.35;;
18082;SDS011;9168;51.194;6.840;2022-09-23T11:48:07;11.15;;;2.80;;
18082;SDS011;9168;51.194;6.840;2022-09-23T11:50:41;6.95;;;3.08;;
18082;SDS011;9168;51.194;6.840;2022-09-23T11:53:17;11.32;;;2.72;;
18082;SDS011;9168;51.194;6.840;2022-09-23T11:55:48;8.90;;;3.17;;
18082;SDS011;9168;51.194;6.840;2022-09-23T11:58:23;7.43;;;2.90;;
18082;SDS011;9168;51.194;6.840;2022-09-23T12:00:54;14.23;;;3.28;;
18082;SDS011;9168;51.194;6.840;2022-09-23T12:03:34;7.00;;;2.50;;
18082;SDS011;9168;51.194;6.840;2022-09-23T12:06:08;9.25;;;2.85;;
18082;SDS011;9168;51.194;6.840;2022-09-23T12:08:40;6.32;;;2.75;;
18082;SDS011;9168;51.194;6.840;2022-09-23T12:11:09;9.30;;;3.10;;
18082;SDS011;9168;51.194;6.840;2022-09-23T12:13:47;9.90;;;2.85;;
18082;SDS011;9168;51.194;6.840;2022-09-23T12:16:42;6.05;;;2.60;;
18082;SDS011;9168;51.194;6.840;2022-09-23T12:19:30;7.43;;;2.72;;
18082;SDS011;9168;51.194;6.840;2022-09-23T12:22:19;10.45;;;2.80;;
18082;SDS011;9168;51.194;6.840;2022-09-23T12:24:58;9.90;;;2.70;;
18082;SDS011;9168;51.194;6.840;2022-09-23T12:27:43;9.48;;;2.65;;
18082;SDS011;9168;51.194;6.840;2022-09-23T12:30:14;6.65;;;2.42;;
18082;SDS011;9168;51.194;6.840;2022-09-23T12:32:44;9.88;;;2.83;;
18082;SDS011;9168;51.194;6.840;2022-09-23T12:35:20;20.45;;;3.15;;
18082;SDS011;9168;51.194;6.840;2022-09-23T12:37:49;11.80;;;2.85;;
18082;SDS011;9168;51.194;6.840;2022-09-23T12:40:18;10.18;;;2.45;;
18082;SDS011;9168;51.194;6.840;2022-09-23T12:42:47;7.70;;;2.40;;
18082;SDS011;9168;51.194;6.840;2022-09-23T12:45:17;6.13;;;2.47;;
18082;SDS011;9168;51.194;6.840;2022-09-23T12:47:58;6.72;;;2.58;;
18082;SDS011;9168;51.194;6.840;2022-09-23T12:59:26;6.25;;;2.30;;
18082;SDS011;9168;51.194;6.840;2022-09-23T13:02:09;5.75;;;2.58;;
18082;SDS011;9168;51.194;6.840;2022-09-23T13:04:53;9.60;;;2.30;;
18082;SDS011;9168;51.194;6.840;2022-09-23T13:07:41;4.10;;;2.10;;
18082;SDS011;9168;51.194;6.840;2022-09-23T13:10:16;5.93;;;2.47;;
18082;SDS011;9168;51.194;6.840;2022-09-23T13:12:48;5.93;;;2.70;;
18082;SDS011;9168;51.194;6.840;2022-09-23T13:15:21;6.88;;;2.70;;
18082;SDS011;9168;51.194;6.840;2022-09-23T13:20:54;15.35;;;2.80;;
18082;SDS011;9168;51.194;6.840;2022-09-23T13:23:23;6.30;;;2.47;;
18082;SDS011;9168;51.194;6.840;2022-09-23T13:25:53;6.32;;;2.45;;
18082;SDS011;9168;51.194;6.840;2022-09-23T13:28:25;9.65;;;2.53;;
18082;SDS011;9168;51.194;6.840;2022-09-23T13:30:54;5.30;;;2.45;;
18082;SDS011;9168;51.194;6.840;2022-09-23T13:33:27;9.65;;;2.65;;
18082;SDS011;9168;51.194;6.840;2022-09-23T13:35:59;10.88;;;2.67;;
18082;SDS011;9168;51.194;6.840;2022-09-23T13:38:29;8.77;;;3.13;;
18082;SDS011;9168;51.194;6.840;2022-09-23T13:40:59;8.88;;;2.75;;
18082;SDS011;9168;51.194;6.840;2022-09-23T13:43:27;10.13;;;2.90;;
18082;SDS011;9168;51.194;6.840;2022-09-23T13:45:58;4.57;;;2.50;;
18082;SDS011;9168;51.194;6.840;2022-09-23T13:48:29;7.75;;;2.97;;
18082;SDS011;9168;51.194;6.840;2022-09-23T13:50:57;8.65;;;2.45;;
18082;SDS011;9168;51.194;6.840;2022-09-23T13:53:31;9.77;;;2.95;;
18082;SDS011;9168;51.194;6.840;2022-09-23T13:55:59;7.32;;;2.40;;
18082;SDS011;9168;51.194;6.840;2022-09-23T13:58:28;4.07;;;2.38;;
18082;SDS011;9168;51.194;6.840;2022-09-23T14:00:56;7.20;;;2.28;;
18082;SDS011;9168;51.194;6.840;2022-09-23T14:03:24;7.88;;;2.60;;
18082;SDS011;9168;51.194;6.840;2022-09-23T14:05:55;5.88;;;2.30;;
18082;SDS011;9168;51.194;6.840;2022-09-23T14:08:23;5.15;;;2.25;;
18082;SDS011;9168;51.194;6.840;2022-09-23T14:10:52;12.70;;;2.75;;
18082;SDS011;9168;51.194;6.840;2022-09-23T14:13:21;5.13;;;2.30;;
18082;SDS011;9168;51.194;6.840;2022-09-23T14:15:51;5.57;;;2.47;;
18082;SDS011;9168;51.194;6.840;2022-09-23T14:18:23;8.68;;;2.17;;
18082;SDS011;9168;51.194;6.840;2022-09-23T14:20:53;6.57;;;2.35;;
18082;SDS011;9168;51.194;6.840;2022-09-23T14:23:20;8.52;;;2.00;;
18082;SDS011;9168;51.194;6.840;2022-09-23T14:25:47;6.40;;;2.35;;
18082;SDS011;9168;51.194;6.840;2022-09-23T14:28:18;7.18;;;1.70;;
18082;SDS011;9168;51.194;6.840;2022-09-23T14:30:48;5.55;;;1.98;;
18082;SDS011;9168;51.194;6.840;2022-09-23T14:33:17;7.90;;;1.90;;
18082;SDS011;9168;51.194;6.840;2022-09-23T14:35:48;4.88;;;1.90;;
18082;SDS011;9168;51.194;6.840;2022-09-23T14:38:20;7.35;;;1.70;;
18082;SDS011;9168;51.194;6.840;2022-09-23T14:41:12;5.13;;;1.70;;
18082;SDS011;9168;51.194;6.840;2022-09-23T14:43:48;4.35;;;1.60;;
18082;SDS011;9168;51.194;6.840;2022-09-23T14:46:18;5.32;;;1.63;;
18082;SDS011;9168;51.194;6.840;2022-09-23T14:48:50;5.03;;;1.83;;
18082;SDS011;9168;51.194;6.840;2022-09-23T14:51:28;7.50;;;2.30;;
18082;SDS011;9168;51.194;6.840;2022-09-23T14:56:58;8.25;;;3.00;;
18082;SDS011;9168;51.194;6.840;2022-09-23T14:59:30;9.18;;;3.33;;
18082;SDS011;9168;51.194;6.840;2022-09-23T15:01:58;13.25;;;4.20;;
18082;SDS011;9168;51.194;6.840;2022-09-23T15:04:26;8.43;;;4.15;;
18082;SDS011;9168;51.194;6.840;2022-09-23T15:06:57;15.15;;;5.13;;
18082;SDS011;9168;51.194;6.840;2022-09-23T15:09:29;8.27;;;3.50;;
18082;SDS011;9168;51.194;6.840;2022-09-23T15:11:58;6.45;;;2.38;;
18082;SDS011;9168;51.194;6.840;2022-09-23T15:14:29;4.88;;;2.80;;
18082;SDS011;9168;51.194;6.840;2022-09-23T15:17:00;5.85;;;1.92;;
18082;SDS011;9168;51.194;6.840;2022-09-23T15:19:30;9.10;;;2.10;;
18082;SDS011;9168;51.194;6.840;2022-09-23T15:21:59;4.88;;;1.73;;
18082;SDS011;9168;51.194;6.840;2022-09-23T15:24:33;3.53;;;1.60;;
18082;SDS011;9168;51.194;6.840;2022-09-23T15:27:08;8.93;;;1.88;;
18082;SDS011;9168;51.194;6.840;2022-09-23T15:29:38;4.65;;;1.63;;
18082;SDS011;9168;51.194;6.840;2022-09-23T15:32:05;4.60;;;1.55;;
18082;SDS011;9168;51.194;6.840;2022-09-23T15:34:33;3.22;;;1.60;;
18082;SDS011;9168;51.194;6.840;2022-09-23T15:37:01;5.18;;;1.73;;
18082;SDS011;9168;51.194;6.840;2022-09-23T15:39:27;7.65;;;1.67;;
18082;SDS011;9168;51.194;6.840;2022-09-23T15:41:55;4.10;;;1.80;;